sensor_id;sensor_type;location;lat;lon;timestamp;temperature;humidity
75799;DHT22;65035;44.726;37.764;2023-04-06T00:00:23;21.94;55.20
75799;DHT22;65035;44.726;37.764;2023-04-06T00:01:27;21.93;55.17
75799;DHT22;65035;44.726;37.764;2023-04-06T00:02:30;21.93;55.18
75799;DHT22;65035;44.726;37.764;2023-04-06T00:03:34;21.92;55.42
75799;DHT22;65035;44.726;37.764;2023-04-06T00:04:37;21.94;55.21
75799;DHT22;65035;44.726;37.764;2023-04-06T00:05:41;21.95;55.38
75799;DHT22;65035;44.726;37.764;2023-04-06T00:06:44;21.95;55.45
75799;DHT22;65035;44.726;37.764;2023-04-06T00:07:47;21.95;55.57
75799;DHT22;65035;44.726;37.764;2023-04-06T00:08:50;21.96;55.36
75799;DHT22;65035;44.726;37.764;2023-04-06T00:09:53;21.97;55.40
75799;DHT22;65035;44.726;37.764;2023-04-06T00:10:56;21.96;55.12
75799;DHT22;65035;44.726;37.764;2023-04-06T00:11:59;21.96;55.12
75799;DHT22;65035;44.726;37.764;2023-04-06T00:13:03;21.96;55.10
75799;DHT22;65035;44.726;37.764;2023-04-06T00:14:06;21.96;55.11
75799;DHT22;65035;44.726;37.764;2023-04-06T00:15:09;21.97;55.04
75799;DHT22;65035;44.726;37.764;2023-04-06T00:16:13;21.95;55.07
75799;DHT22;65035;44.726;37.764;2023-04-06T00:17:16;21.96;55.03
75799;DHT22;65035;44.726;37.764;2023-04-06T00:18:19;21.97;55.03
75799;DHT22;65035;44.726;37.764;2023-04-06T00:19:22;21.97;55.00
75799;DHT22;65035;44.726;37.764;2023-04-06T00:20:25;21.98;55.03
75799;DHT22;65035;44.726;37.764;2023-04-06T00:21:29;21.97;55.01
75799;DHT22;65035;44.726;37.764;2023-04-06T00:22:34;21.96;55.03
75799;DHT22;65035;44.726;37.764;2023-04-06T00:23:37;21.97;55.02
75799;DHT22;65035;44.726;37.764;2023-04-06T00:24:40;21.97;55.05
75799;DHT22;65035;44.726;37.764;2023-04-06T00:25:43;21.96;55.06
75799;DHT22;65035;44.726;37.764;2023-04-06T00:26:46;21.98;55.05
75799;DHT22;65035;44.726;37.764;2023-04-06T00:27:49;21.97;55.04
75799;DHT22;65035;44.726;37.764;2023-04-06T00:28:52;21.96;55.02
75799;DHT22;65035;44.726;37.764;2023-04-06T00:29:56;21.97;55.00
75799;DHT22;65035;44.726;37.764;2023-04-06T00:30:59;21.95;55.02
75799;DHT22;65035;44.726;37.764;2023-04-06T00:32:02;21.97;55.08
75799;DHT22;65035;44.726;37.764;2023-04-06T00:33:05;21.98;55.09
75799;DHT22;65035;44.726;37.764;2023-04-06T00:34:09;21.97;55.23
75799;DHT22;65035;44.726;37.764;2023-04-06T00:35:13;21.97;55.15
75799;DHT22;65035;44.726;37.764;2023-04-06T00:36:17;21.98;55.07
75799;DHT22;65035;44.726;37.764;2023-04-06T00:37:21;21.97;55.00
75799;DHT22;65035;44.726;37.764;2023-04-06T00:38:24;21.97;54.97
75799;DHT22;65035;44.726;37.764;2023-04-06T00:39:27;21.98;54.94
75799;DHT22;65035;44.726;37.764;2023-04-06T00:40:30;21.98;54.91
75799;DHT22;65035;44.726;37.764;2023-04-06T00:41:33;21.98;54.90
75799;DHT22;65035;44.726;37.764;2023-04-06T00:42:38;21.97;54.88
75799;DHT22;65035;44.726;37.764;2023-04-06T00:43:41;21.97;54.87
75799;DHT22;65035;44.726;37.764;2023-04-06T00:44:44;21.98;54.89
75799;DHT22;65035;44.726;37.764;2023-04-06T00:45:48;21.96;54.85
75799;DHT22;65035;44.726;37.764;2023-04-06T00:46:51;21.97;54.86
75799;DHT22;65035;44.726;37.764;2023-04-06T00:47:54;21.96;54.83
75799;DHT22;65035;44.726;37.764;2023-04-06T00:48:58;21.97;54.84
75799;DHT22;65035;44.726;37.764;2023-04-06T00:50:01;21.98;54.81
75799;DHT22;65035;44.726;37.764;2023-04-06T00:51:05;21.97;54.79
75799;DHT22;65035;44.726;37.764;2023-04-06T00:52:08;21.98;54.78
75799;DHT22;65035;44.726;37.764;2023-04-06T00:53:12;21.97;54.76
75799;DHT22;65035;44.726;37.764;2023-04-06T00:54:16;21.97;54.78
75799;DHT22;65035;44.726;37.764;2023-04-06T00:55:19;21.97;54.79
75799;DHT22;65035;44.726;37.764;2023-04-06T00:56:22;21.96;54.75
75799;DHT22;65035;44.726;37.764;2023-04-06T00:57:28;21.97;54.76
75799;DHT22;65035;44.726;37.764;2023-04-06T00:58:31;21.97;54.87
75799;DHT22;65035;44.726;37.764;2023-04-06T00:59:40;21.97;54.90
75799;DHT22;65035;44.726;37.764;2023-04-06T01:00:47;21.97;54.83
75799;DHT22;65035;44.726;37.764;2023-04-06T01:01:53;21.98;54.84
75799;DHT22;65035;44.726;37.764;2023-04-06T01:03:08;21.97;54.73
75799;DHT22;65035;44.726;37.764;2023-04-06T01:04:15;21.97;54.66
75799;DHT22;65035;44.726;37.764;2023-04-06T01:05:19;21.97;54.65
75799;DHT22;65035;44.726;37.764;2023-04-06T01:06:29;21.97;54.65
75799;DHT22;65035;44.726;37.764;2023-04-06T01:07:35;21.96;54.62
75799;DHT22;65035;44.726;37.764;2023-04-06T01:08:44;21.96;54.64
75799;DHT22;65035;44.726;37.764;2023-04-06T01:09:54;21.97;54.61
75799;DHT22;65035;44.726;37.764;2023-04-06T01:11:01;21.97;54.61
75799;DHT22;65035;44.726;37.764;2023-04-06T01:12:05;21.95;54.60
75799;DHT22;65035;44.726;37.764;2023-04-06T01:13:09;21.97;54.60
75799;DHT22;65035;44.726;37.764;2023-04-06T01:14:24;21.96;54.62
75799;DHT22;65035;44.726;37.764;2023-04-06T01:15:33;21.95;54.59
75799;DHT22;65035;44.726;37.764;2023-04-06T01:16:38;21.96;54.60
75799;DHT22;65035;44.726;37.764;2023-04-06T01:17:47;21.95;54.61
75799;DHT22;65035;44.726;37.764;2023-04-06T01:18:51;21.96;54.58
75799;DHT22;65035;44.726;37.764;2023-04-06T01:19:59;21.95;54.55
75799;DHT22;65035;44.726;37.764;2023-04-06T01:21:07;21.95;54.60
75799;DHT22;65035;44.726;37.764;2023-04-06T01:22:16;21.95;54.56
75799;DHT22;65035;44.726;37.764;2023-04-06T01:23:26;21.94;54.52
75799;DHT22;65035;44.726;37.764;2023-04-06T01:24:29;21.95;54.53
75799;DHT22;65035;44.726;37.764;2023-04-06T01:25:42;21.95;54.52
75799;DHT22;65035;44.726;37.764;2023-04-06T01:26:45;21.95;54.53
75799;DHT22;65035;44.726;37.764;2023-04-06T01:27:48;21.95;54.51
75799;DHT22;65035;44.726;37.764;2023-04-06T01:28:56;21.94;54.52
75799;DHT22;65035;44.726;37.764;2023-04-06T01:30:03;21.94;54.55
75799;DHT22;65035;44.726;37.764;2023-04-06T01:31:35;21.95;54.46
75799;DHT22;65035;44.726;37.764;2023-04-06T01:32:39;21.94;54.43
75799;DHT22;65035;44.726;37.764;2023-04-06T01:33:47;21.94;54.45
75799;DHT22;65035;44.726;37.764;2023-04-06T01:34:53;21.95;54.47
75799;DHT22;65035;44.726;37.764;2023-04-06T01:35:57;21.94;54.49
75799;DHT22;65035;44.726;37.764;2023-04-06T01:37:00;21.93;54.52
75799;DHT22;65035;44.726;37.764;2023-04-06T01:38:05;21.94;54.49
75799;DHT22;65035;44.726;37.764;2023-04-06T01:39:10;21.95;54.51
75799;DHT22;65035;44.726;37.764;2023-04-06T01:40:15;21.93;54.47
75799;DHT22;65035;44.726;37.764;2023-04-06T01:41:24;21.93;54.47
75799;DHT22;65035;44.726;37.764;2023-04-06T01:42:28;21.95;54.49
75799;DHT22;65035;44.726;37.764;2023-04-06T01:43:32;21.93;54.43
75799;DHT22;65035;44.726;37.764;2023-04-06T01:44:42;21.94;54.46
75799;DHT22;65035;44.726;37.764;2023-04-06T01:45:48;21.93;54.44
75799;DHT22;65035;44.726;37.764;2023-04-06T01:46:55;21.95;54.42
75799;DHT22;65035;44.726;37.764;2023-04-06T01:47:59;21.93;54.39
75799;DHT22;65035;44.726;37.764;2023-04-06T01:49:04;21.93;54.39
75799;DHT22;65035;44.726;37.764;2023-04-06T01:50:15;21.95;54.41
75799;DHT22;65035;44.726;37.764;2023-04-06T01:51:21;21.93;54.41
75799;DHT22;65035;44.726;37.764;2023-04-06T01:52:33;21.93;54.36
75799;DHT22;65035;44.726;37.764;2023-04-06T01:53:36;21.93;54.39
75799;DHT22;65035;44.726;37.764;2023-04-06T01:54:41;21.93;54.38
75799;DHT22;65035;44.726;37.764;2023-04-06T01:55:49;21.92;54.37
75799;DHT22;65035;44.726;37.764;2023-04-06T01:56:57;21.93;54.34
75799;DHT22;65035;44.726;37.764;2023-04-06T01:58:27;21.93;54.33
75799;DHT22;65035;44.726;37.764;2023-04-06T01:59:32;21.94;54.36
75799;DHT22;65035;44.726;37.764;2023-04-06T02:00:40;21.93;54.36
75799;DHT22;65035;44.726;37.764;2023-04-06T02:01:44;21.94;54.39
75799;DHT22;65035;44.726;37.764;2023-04-06T02:02:48;21.93;54.37
75799;DHT22;65035;44.726;37.764;2023-04-06T02:03:56;21.92;54.33
75799;DHT22;65035;44.726;37.764;2023-04-06T02:04:59;21.92;54.36
75799;DHT22;65035;44.726;37.764;2023-04-06T02:06:04;21.93;54.31
75799;DHT22;65035;44.726;37.764;2023-04-06T02:07:12;21.92;54.32
75799;DHT22;65035;44.726;37.764;2023-04-06T02:08:15;21.92;54.32
75799;DHT22;65035;44.726;37.764;2023-04-06T02:09:18;21.92;54.34
75799;DHT22;65035;44.726;37.764;2023-04-06T02:10:22;21.92;54.33
75799;DHT22;65035;44.726;37.764;2023-04-06T02:11:25;21.92;54.35
75799;DHT22;65035;44.726;37.764;2023-04-06T02:12:30;21.92;54.33
75799;DHT22;65035;44.726;37.764;2023-04-06T02:13:33;21.92;54.32
75799;DHT22;65035;44.726;37.764;2023-04-06T02:14:37;21.92;54.33
75799;DHT22;65035;44.726;37.764;2023-04-06T02:15:40;21.92;54.33
75799;DHT22;65035;44.726;37.764;2023-04-06T02:16:43;21.92;54.34
75799;DHT22;65035;44.726;37.764;2023-04-06T02:17:46;21.92;54.32
75799;DHT22;65035;44.726;37.764;2023-04-06T02:18:49;21.92;54.30
75799;DHT22;65035;44.726;37.764;2023-04-06T02:19:53;21.92;54.31
75799;DHT22;65035;44.726;37.764;2023-04-06T02:20:56;21.92;54.29
75799;DHT22;65035;44.726;37.764;2023-04-06T02:21:59;21.92;54.30
75799;DHT22;65035;44.726;37.764;2023-04-06T02:23:03;21.92;54.28
75799;DHT22;65035;44.726;37.764;2023-04-06T02:24:06;21.92;54.30
75799;DHT22;65035;44.726;37.764;2023-04-06T02:25:09;21.92;54.33
75799;DHT22;65035;44.726;37.764;2023-04-06T02:26:13;21.91;54.30
75799;DHT22;65035;44.726;37.764;2023-04-06T02:27:17;21.92;54.31
75799;DHT22;65035;44.726;37.764;2023-04-06T02:28:21;21.92;54.32
75799;DHT22;65035;44.726;37.764;2023-04-06T02:29:25;21.92;54.30
75799;DHT22;65035;44.726;37.764;2023-04-06T02:30:28;21.92;54.25
75799;DHT22;65035;44.726;37.764;2023-04-06T02:31:32;21.91;54.27
75799;DHT22;65035;44.726;37.764;2023-04-06T02:32:36;21.91;54.28
75799;DHT22;65035;44.726;37.764;2023-04-06T02:33:39;21.92;54.28
75799;DHT22;65035;44.726;37.764;2023-04-06T02:34:42;21.91;54.25
75799;DHT22;65035;44.726;37.764;2023-04-06T02:35:46;21.92;54.26
75799;DHT22;65035;44.726;37.764;2023-04-06T02:36:49;21.91;54.26
75799;DHT22;65035;44.726;37.764;2023-04-06T02:37:52;21.91;54.26
75799;DHT22;65035;44.726;37.764;2023-04-06T02:38:55;21.91;54.22
75799;DHT22;65035;44.726;37.764;2023-04-06T02:39:58;21.92;54.24
75799;DHT22;65035;44.726;37.764;2023-04-06T02:41:03;21.91;54.25
75799;DHT22;65035;44.726;37.764;2023-04-06T02:42:06;21.91;54.25
75799;DHT22;65035;44.726;37.764;2023-04-06T02:43:09;21.91;54.24
75799;DHT22;65035;44.726;37.764;2023-04-06T02:44:12;21.90;54.23
75799;DHT22;65035;44.726;37.764;2023-04-06T02:45:18;21.91;54.23
75799;DHT22;65035;44.726;37.764;2023-04-06T02:46:22;21.90;54.25
75799;DHT22;65035;44.726;37.764;2023-04-06T02:47:25;21.92;54.23
75799;DHT22;65035;44.726;37.764;2023-04-06T02:48:28;21.92;54.25
75799;DHT22;65035;44.726;37.764;2023-04-06T02:49:31;21.91;54.23
75799;DHT22;65035;44.726;37.764;2023-04-06T02:50:34;21.91;54.21
75799;DHT22;65035;44.726;37.764;2023-04-06T02:51:40;21.90;54.23
75799;DHT22;65035;44.726;37.764;2023-04-06T02:52:54;21.91;54.24
75799;DHT22;65035;44.726;37.764;2023-04-06T02:53:59;21.91;54.20
75799;DHT22;65035;44.726;37.764;2023-04-06T02:55:02;21.90;54.20
75799;DHT22;65035;44.726;37.764;2023-04-06T02:56:06;21.91;54.20
75799;DHT22;65035;44.726;37.764;2023-04-06T02:57:20;21.89;54.21
75799;DHT22;65035;44.726;37.764;2023-04-06T02:58:25;21.91;54.21
75799;DHT22;65035;44.726;37.764;2023-04-06T02:59:31;21.91;54.23
75799;DHT22;65035;44.726;37.764;2023-04-06T03:00:45;21.91;54.24
75799;DHT22;65035;44.726;37.764;2023-04-06T03:01:48;21.90;54.22
75799;DHT22;65035;44.726;37.764;2023-04-06T03:02:51;21.90;54.20
75799;DHT22;65035;44.726;37.764;2023-04-06T03:03:54;21.91;54.19
75799;DHT22;65035;44.726;37.764;2023-04-06T03:05:02;21.90;54.18
75799;DHT22;65035;44.726;37.764;2023-04-06T03:06:11;21.89;54.17
75799;DHT22;65035;44.726;37.764;2023-04-06T03:07:14;21.90;54.20
75799;DHT22;65035;44.726;37.764;2023-04-06T03:08:18;21.91;54.17
75799;DHT22;65035;44.726;37.764;2023-04-06T03:09:21;21.89;54.19
75799;DHT22;65035;44.726;37.764;2023-04-06T03:10:24;21.90;54.14
75799;DHT22;65035;44.726;37.764;2023-04-06T03:11:27;21.89;54.17
75799;DHT22;65035;44.726;37.764;2023-04-06T03:12:31;21.88;54.17
75799;DHT22;65035;44.726;37.764;2023-04-06T03:13:45;21.89;54.11
75799;DHT22;65035;44.726;37.764;2023-04-06T03:14:48;21.90;54.15
75799;DHT22;65035;44.726;37.764;2023-04-06T03:15:51;21.89;54.11
75799;DHT22;65035;44.726;37.764;2023-04-06T03:16:57;21.90;54.14
75799;DHT22;65035;44.726;37.764;2023-04-06T03:18:00;21.88;54.15
75799;DHT22;65035;44.726;37.764;2023-04-06T03:19:16;21.90;54.13
75799;DHT22;65035;44.726;37.764;2023-04-06T03:20:20;21.89;54.13
75799;DHT22;65035;44.726;37.764;2023-04-06T03:21:25;21.90;54.11
75799;DHT22;65035;44.726;37.764;2023-04-06T03:22:28;21.89;54.09
75799;DHT22;65035;44.726;37.764;2023-04-06T03:23:32;21.89;54.10
75799;DHT22;65035;44.726;37.764;2023-04-06T03:24:36;21.90;54.10
75799;DHT22;65035;44.726;37.764;2023-04-06T03:25:40;21.88;54.10
75799;DHT22;65035;44.726;37.764;2023-04-06T03:26:49;21.90;54.12
75799;DHT22;65035;44.726;37.764;2023-04-06T03:27:53;21.89;54.12
75799;DHT22;65035;44.726;37.764;2023-04-06T03:28:56;21.88;54.11
75799;DHT22;65035;44.726;37.764;2023-04-06T03:30:04;21.88;54.12
75799;DHT22;65035;44.726;37.764;2023-04-06T03:31:09;21.89;54.12
75799;DHT22;65035;44.726;37.764;2023-04-06T03:32:48;21.89;54.21
75799;DHT22;65035;44.726;37.764;2023-04-06T03:33:51;21.90;54.25
75799;DHT22;65035;44.726;37.764;2023-04-06T03:35:04;21.89;54.30
75799;DHT22;65035;44.726;37.764;2023-04-06T03:36:08;21.88;54.23
75799;DHT22;65035;44.726;37.764;2023-04-06T03:37:15;21.88;54.19
75799;DHT22;65035;44.726;37.764;2023-04-06T03:38:23;21.88;54.13
75799;DHT22;65035;44.726;37.764;2023-04-06T03:39:26;21.89;54.15
75799;DHT22;65035;44.726;37.764;2023-04-06T03:40:32;21.88;54.08
75799;DHT22;65035;44.726;37.764;2023-04-06T03:41:35;21.88;54.10
75799;DHT22;65035;44.726;37.764;2023-04-06T03:42:57;21.87;54.09
75799;DHT22;65035;44.726;37.764;2023-04-06T03:44:00;21.88;54.07
75799;DHT22;65035;44.726;37.764;2023-04-06T03:45:04;21.88;54.05
75799;DHT22;65035;44.726;37.764;2023-04-06T03:46:07;21.88;54.03
75799;DHT22;65035;44.726;37.764;2023-04-06T03:47:10;21.87;53.99
75799;DHT22;65035;44.726;37.764;2023-04-06T03:48:13;21.88;53.95
75799;DHT22;65035;44.726;37.764;2023-04-06T03:49:17;21.88;53.94
75799;DHT22;65035;44.726;37.764;2023-04-06T03:50:23;21.87;53.95
75799;DHT22;65035;44.726;37.764;2023-04-06T03:51:27;21.88;54.00
75799;DHT22;65035;44.726;37.764;2023-04-06T03:52:30;21.88;54.26
75799;DHT22;65035;44.726;37.764;2023-04-06T03:53:33;21.89;54.76
75799;DHT22;65035;44.726;37.764;2023-04-06T03:54:40;21.89;54.56
75799;DHT22;65035;44.726;37.764;2023-04-06T03:55:45;21.91;54.60
75799;DHT22;65035;44.726;37.764;2023-04-06T03:56:49;21.91;54.75
75799;DHT22;65035;44.726;37.764;2023-04-06T03:57:52;21.93;54.87
75799;DHT22;65035;44.726;37.764;2023-04-06T03:58:55;21.93;55.34
75799;DHT22;65035;44.726;37.764;2023-04-06T03:59:59;21.94;55.20
75799;DHT22;65035;44.726;37.764;2023-04-06T04:01:03;21.95;56.00
75799;DHT22;65035;44.726;37.764;2023-04-06T04:02:06;21.97;55.36
75799;DHT22;65035;44.726;37.764;2023-04-06T04:03:09;21.98;55.81
75799;DHT22;65035;44.726;37.764;2023-04-06T04:04:12;22.02;56.55
75799;DHT22;65035;44.726;37.764;2023-04-06T04:05:17;22.03;56.21
75799;DHT22;65035;44.726;37.764;2023-04-06T04:06:20;22.03;56.13
75799;DHT22;65035;44.726;37.764;2023-04-06T04:07:24;22.06;56.09
75799;DHT22;65035;44.726;37.764;2023-04-06T04:08:27;22.06;55.95
75799;DHT22;65035;44.726;37.764;2023-04-06T04:09:30;22.08;55.75
75799;DHT22;65035;44.726;37.764;2023-04-06T04:10:33;22.10;55.83
75799;DHT22;65035;44.726;37.764;2023-04-06T04:11:36;22.10;55.54
75799;DHT22;65035;44.726;37.764;2023-04-06T04:12:39;22.11;55.49
75799;DHT22;65035;44.726;37.764;2023-04-06T04:13:43;22.11;55.40
75799;DHT22;65035;44.726;37.764;2023-04-06T04:14:46;22.11;55.51
75799;DHT22;65035;44.726;37.764;2023-04-06T04:15:49;22.12;55.50
75799;DHT22;65035;44.726;37.764;2023-04-06T04:16:54;22.14;55.49
75799;DHT22;65035;44.726;37.764;2023-04-06T04:17:58;22.14;55.63
75799;DHT22;65035;44.726;37.764;2023-04-06T04:19:02;22.14;55.72
75799;DHT22;65035;44.726;37.764;2023-04-06T04:20:07;22.18;55.75
75799;DHT22;65035;44.726;37.764;2023-04-06T04:21:12;22.18;55.72
75799;DHT22;65035;44.726;37.764;2023-04-06T04:22:15;22.18;55.63
75799;DHT22;65035;44.726;37.764;2023-04-06T04:23:18;22.18;55.42
75799;DHT22;65035;44.726;37.764;2023-04-06T04:24:22;22.19;55.49
75799;DHT22;65035;44.726;37.764;2023-04-06T04:25:25;22.19;55.61
75799;DHT22;65035;44.726;37.764;2023-04-06T04:26:28;22.20;55.29
75799;DHT22;65035;44.726;37.764;2023-04-06T04:27:31;22.20;55.16
75799;DHT22;65035;44.726;37.764;2023-04-06T04:28:39;22.20;54.77
75799;DHT22;65035;44.726;37.764;2023-04-06T04:29:42;22.18;54.71
75799;DHT22;65035;44.726;37.764;2023-04-06T04:30:48;22.18;54.46
75799;DHT22;65035;44.726;37.764;2023-04-06T04:31:51;22.17;54.40
75799;DHT22;65035;44.726;37.764;2023-04-06T04:32:55;22.19;54.36
75799;DHT22;65035;44.726;37.764;2023-04-06T04:33:59;22.17;54.38
75799;DHT22;65035;44.726;37.764;2023-04-06T04:35:07;22.17;54.36
75799;DHT22;65035;44.726;37.764;2023-04-06T04:36:12;22.16;54.46
75799;DHT22;65035;44.726;37.764;2023-04-06T04:37:18;22.14;54.46
75799;DHT22;65035;44.726;37.764;2023-04-06T04:38:30;22.14;54.53
75799;DHT22;65035;44.726;37.764;2023-04-06T04:39:35;22.13;54.54
75799;DHT22;65035;44.726;37.764;2023-04-06T04:40:41;22.13;54.52
75799;DHT22;65035;44.726;37.764;2023-04-06T04:41:46;22.12;54.47
75799;DHT22;65035;44.726;37.764;2023-04-06T04:42:49;22.13;54.54
75799;DHT22;65035;44.726;37.764;2023-04-06T04:44:00;22.12;54.53
75799;DHT22;65035;44.726;37.764;2023-04-06T04:45:05;22.10;54.55
75799;DHT22;65035;44.726;37.764;2023-04-06T04:46:12;22.08;54.55
75799;DHT22;65035;44.726;37.764;2023-04-06T04:47:18;22.09;54.55
75799;DHT22;65035;44.726;37.764;2023-04-06T04:48:22;22.09;54.57
75799;DHT22;65035;44.726;37.764;2023-04-06T04:49:35;22.07;54.64
75799;DHT22;65035;44.726;37.764;2023-04-06T04:50:38;22.07;54.58
75799;DHT22;65035;44.726;37.764;2023-04-06T04:51:42;22.06;54.65
75799;DHT22;65035;44.726;37.764;2023-04-06T04:52:54;22.05;54.62
75799;DHT22;65035;44.726;37.764;2023-04-06T04:54:00;22.04;54.66
75799;DHT22;65035;44.726;37.764;2023-04-06T04:55:06;22.03;54.73
75799;DHT22;65035;44.726;37.764;2023-04-06T04:56:09;22.02;54.69
75799;DHT22;65035;44.726;37.764;2023-04-06T04:57:13;22.03;54.68
75799;DHT22;65035;44.726;37.764;2023-04-06T04:58:18;22.02;54.71
75799;DHT22;65035;44.726;37.764;2023-04-06T04:59:27;22.01;54.71
75799;DHT22;65035;44.726;37.764;2023-04-06T05:00:44;21.98;54.74
75799;DHT22;65035;44.726;37.764;2023-04-06T05:01:49;21.98;54.71
75799;DHT22;65035;44.726;37.764;2023-04-06T05:02:58;21.97;54.74
75799;DHT22;65035;44.726;37.764;2023-04-06T05:04:04;21.97;54.76
75799;DHT22;65035;44.726;37.764;2023-04-06T05:05:08;21.96;54.77
75799;DHT22;65035;44.726;37.764;2023-04-06T05:06:12;21.95;54.79
75799;DHT22;65035;44.726;37.764;2023-04-06T05:07:16;21.94;54.89
75799;DHT22;65035;44.726;37.764;2023-04-06T05:08:21;21.93;54.86
75799;DHT22;65035;44.726;37.764;2023-04-06T05:09:24;21.93;54.91
75799;DHT22;65035;44.726;37.764;2023-04-06T05:10:29;21.91;54.87
75799;DHT22;65035;44.726;37.764;2023-04-06T05:11:35;21.92;54.87
75799;DHT22;65035;44.726;37.764;2023-04-06T05:12:38;21.90;54.98
75799;DHT22;65035;44.726;37.764;2023-04-06T05:13:45;21.90;54.91
75799;DHT22;65035;44.726;37.764;2023-04-06T05:14:53;21.90;54.86
75799;DHT22;65035;44.726;37.764;2023-04-06T05:15:58;21.89;54.87
75799;DHT22;65035;44.726;37.764;2023-04-06T05:17:05;21.89;54.87
75799;DHT22;65035;44.726;37.764;2023-04-06T05:18:09;21.88;54.97
75799;DHT22;65035;44.726;37.764;2023-04-06T05:19:12;21.85;54.91
75799;DHT22;65035;44.726;37.764;2023-04-06T05:20:18;21.87;54.92
75799;DHT22;65035;44.726;37.764;2023-04-06T05:21:25;21.84;55.01
75799;DHT22;65035;44.726;37.764;2023-04-06T05:22:34;21.84;54.98
75799;DHT22;65035;44.726;37.764;2023-04-06T05:23:42;21.84;54.94
75799;DHT22;65035;44.726;37.764;2023-04-06T05:24:46;21.83;55.07
75799;DHT22;65035;44.726;37.764;2023-04-06T05:25:49;21.83;55.02
75799;DHT22;65035;44.726;37.764;2023-04-06T05:26:56;21.82;55.04
75799;DHT22;65035;44.726;37.764;2023-04-06T05:27:59;21.81;55.04
75799;DHT22;65035;44.726;37.764;2023-04-06T05:29:10;21.80;55.10
75799;DHT22;65035;44.726;37.764;2023-04-06T05:30:14;21.80;55.13
75799;DHT22;65035;44.726;37.764;2023-04-06T05:31:20;21.78;55.11
75799;DHT22;65035;44.726;37.764;2023-04-06T05:32:27;21.78;55.17
75799;DHT22;65035;44.726;37.764;2023-04-06T05:33:30;21.77;55.12
75799;DHT22;65035;44.726;37.764;2023-04-06T05:34:43;21.76;55.16
75799;DHT22;65035;44.726;37.764;2023-04-06T05:35:46;21.75;55.18
75799;DHT22;65035;44.726;37.764;2023-04-06T05:36:52;21.74;55.18
75799;DHT22;65035;44.726;37.764;2023-04-06T05:37:59;21.74;55.18
75799;DHT22;65035;44.726;37.764;2023-04-06T05:39:03;21.75;55.23
75799;DHT22;65035;44.726;37.764;2023-04-06T05:40:19;21.73;55.29
75799;DHT22;65035;44.726;37.764;2023-04-06T05:41:23;21.73;55.25
75799;DHT22;65035;44.726;37.764;2023-04-06T05:42:26;21.72;55.30
75799;DHT22;65035;44.726;37.764;2023-04-06T05:43:33;21.70;55.28
75799;DHT22;65035;44.726;37.764;2023-04-06T05:45:25;21.69;55.33
75799;DHT22;65035;44.726;37.764;2023-04-06T05:46:31;21.68;55.26
75799;DHT22;65035;44.726;37.764;2023-04-06T05:47:35;21.68;55.28
75799;DHT22;65035;44.726;37.764;2023-04-06T05:48:48;21.67;55.28
75799;DHT22;65035;44.726;37.764;2023-04-06T05:49:54;21.68;55.36
75799;DHT22;65035;44.726;37.764;2023-04-06T05:51:06;21.66;55.31
75799;DHT22;65035;44.726;37.764;2023-04-06T05:52:18;21.66;55.29
75799;DHT22;65035;44.726;37.764;2023-04-06T05:53:23;21.65;55.39
75799;DHT22;65035;44.726;37.764;2023-04-06T05:54:32;21.65;55.36
75799;DHT22;65035;44.726;37.764;2023-04-06T05:55:38;21.64;55.41
75799;DHT22;65035;44.726;37.764;2023-04-06T05:56:48;21.63;55.45
75799;DHT22;65035;44.726;37.764;2023-04-06T05:57:51;21.63;55.42
75799;DHT22;65035;44.726;37.764;2023-04-06T05:58:56;21.61;55.37
75799;DHT22;65035;44.726;37.764;2023-04-06T06:00:04;21.61;55.42
75799;DHT22;65035;44.726;37.764;2023-04-06T06:01:21;21.60;55.48
75799;DHT22;65035;44.726;37.764;2023-04-06T06:02:24;21.61;55.49
75799;DHT22;65035;44.726;37.764;2023-04-06T06:03:28;21.60;55.60
75799;DHT22;65035;44.726;37.764;2023-04-06T06:04:33;21.59;55.51
75799;DHT22;65035;44.726;37.764;2023-04-06T06:05:36;21.59;55.45
75799;DHT22;65035;44.726;37.764;2023-04-06T06:06:56;21.58;55.55
75799;DHT22;65035;44.726;37.764;2023-04-06T06:08:06;21.57;55.54
75799;DHT22;65035;44.726;37.764;2023-04-06T06:09:09;21.58;55.49
75799;DHT22;65035;44.726;37.764;2023-04-06T06:10:18;21.57;55.42
75799;DHT22;65035;44.726;37.764;2023-04-06T06:11:21;21.57;55.36
75799;DHT22;65035;44.726;37.764;2023-04-06T06:12:25;21.55;55.39
75799;DHT22;65035;44.726;37.764;2023-04-06T06:13:28;21.54;55.42
75799;DHT22;65035;44.726;37.764;2023-04-06T06:14:32;21.54;55.45
75799;DHT22;65035;44.726;37.764;2023-04-06T06:15:35;21.54;55.49
75799;DHT22;65035;44.726;37.764;2023-04-06T06:16:38;21.53;55.51
75799;DHT22;65035;44.726;37.764;2023-04-06T06:17:43;21.52;55.48
75799;DHT22;65035;44.726;37.764;2023-04-06T06:18:46;21.52;55.59
75799;DHT22;65035;44.726;37.764;2023-04-06T06:19:49;21.52;55.55
75799;DHT22;65035;44.726;37.764;2023-04-06T06:20:52;21.51;55.49
75799;DHT22;65035;44.726;37.764;2023-04-06T06:22:44;21.51;55.60
75799;DHT22;65035;44.726;37.764;2023-04-06T06:23:52;21.52;55.57
75799;DHT22;65035;44.726;37.764;2023-04-06T06:24:57;21.51;55.56
75799;DHT22;65035;44.726;37.764;2023-04-06T06:26:00;21.50;55.47
75799;DHT22;65035;44.726;37.764;2023-04-06T06:27:04;21.49;55.52
75799;DHT22;65035;44.726;37.764;2023-04-06T06:28:11;21.49;55.59
75799;DHT22;65035;44.726;37.764;2023-04-06T06:29:15;21.49;55.57
75799;DHT22;65035;44.726;37.764;2023-04-06T06:30:18;21.48;55.46
75799;DHT22;65035;44.726;37.764;2023-04-06T06:31:22;21.48;55.55
75799;DHT22;65035;44.726;37.764;2023-04-06T06:33:21;21.47;55.63
75799;DHT22;65035;44.726;37.764;2023-04-06T06:34:27;21.46;55.49
75799;DHT22;65035;44.726;37.764;2023-04-06T06:35:32;21.47;55.57
75799;DHT22;65035;44.726;37.764;2023-04-06T06:36:38;21.45;55.57
75799;DHT22;65035;44.726;37.764;2023-04-06T06:37:43;21.46;55.57
75799;DHT22;65035;44.726;37.764;2023-04-06T06:39:45;21.46;55.64
75799;DHT22;65035;44.726;37.764;2023-04-06T06:40:48;21.44;55.62
75799;DHT22;65035;44.726;37.764;2023-04-06T06:44:14;21.43;55.61
75799;DHT22;65035;44.726;37.764;2023-04-06T06:45:19;21.43;55.55
75799;DHT22;65035;44.726;37.764;2023-04-06T06:46:22;21.42;55.58
75799;DHT22;65035;44.726;37.764;2023-04-06T06:48:14;21.39;55.61
75799;DHT22;65035;44.726;37.764;2023-04-06T06:49:17;21.39;55.62
75799;DHT22;65035;44.726;37.764;2023-04-06T06:50:21;21.39;55.60
75799;DHT22;65035;44.726;37.764;2023-04-06T06:51:24;21.39;55.65
75799;DHT22;65035;44.726;37.764;2023-04-06T06:52:27;21.39;55.61